Loisir ou Compétition : Rejoignez un Club de la Fédération

Résultats

COUPE D'ARGENT U16 TROPHEE BANQUE POPULAIRE AUVERGNE RHONE ALPES

VAL D'ISERE

SG Hommes

Jury de Compétition

Délégué Technique :
BLANC THIERRY (SA)
Arbitre :
MEYER ELISE (sa)
Assistant :
BOGNIER BENOIT (SA)
Dir. Epreuve :
BIANCHI JEAN (sa)

Caractéristiques de la Piste

Piste :
G
Départ :
2260
Arrivée :
1814
Dénivelé :
446
Homologation :
3675/03/19

Manche 1

Nombre de Portes :
38
Heure de Départ :
12:45
Traceur :
GARZON FLORIAN (SA)
Ouvreurs A :
BERTHET MATTEO (SA)
Ouvreurs B :
GELLIE TIMOTHE (SA)
Ouvreurs C :
ROMANET PERROUX JULIEN (SA)
Ouvreurs D :
RACLOZ MATEO (SA)
Ouvreurs E :
 
Temps :
Vent, Passage nuageu
Neige :
- 0°C

Manche 2

Nombre de Portes :
 
Heure de Départ :
 
Traceur :
 
Ouvreurs A :
 
Ouvreurs B :
 
Ouvreurs C :
 
Ouvreurs D :
 
Ouvreurs E :
 
Température Départ :
 
Température Arrivée :
 

Pénalité Appliquée :
66.7400

Catégorie :
U16
Clt Dos Clt/Cat Code An Nom Prénom Com Club Tps M1 Tps Tot Pts
Classés
1 70 1/U16 FFS2657054 2004 BERTHET AUGUSTIN SA VAL D'ISERE 1:06.82 1:06.82 66.74
2 2 2/U16 FFS2661964 2004 SKABAR JONAS SA CS MERIBEL 1:07.01 1:07.01 70.12
3 10 3/U16 FFS2676287 2004 DUFFAUD PACO SA CS TIGNES 1:08.00 1:08.00 87.75
4 82 4/U16 FFS2650934 2004 CHARRIERE REMI SA STE FOY TSE 1:08.09 1:08.09 89.36
5 5 5/U16 FFS2661032 2005 CHARPIN CLEMENT SA COURCHEVEL 1:08.14 1:08.14 90.25
5 74 5/U16 FFS2657126 2004 JEAUME RAPHAEL SA VAL D'ISERE 1:08.14 1:08.14 90.25
7 63 7/U16 FFS2662432 2005 HOUHOU DUNAND TOMMY SA COURCHEVEL 1:08.19 1:08.19 91.14
8 13 8/U16 FFS2668815 2005 GAUCHER GUERLAIN SA CS LA PLAGNE 1:08.35 1:08.35 93.99
9 14 9/U16 FFS2661251 2004 GARNIER KILLIAN SA CS VAL CENIS 1:08.39 1:08.39 94.70
10 100 10/U16 FFS2657125 2004 HACQUARD DYLAN SA VAL D'ISERE 1:08.69 1:08.69 100.04
11 16 11/U16 FFS2653348 2004 DUPONT ROC SIMON SA SC FLUMET 1:08.81 1:08.81 102.18
12 77 12/U16 FFS2656302 2004 CARETTI MATTEO SA ALBERTVILLE 1:08.86 1:08.86 103.07
13 68 13/U16 FFS2656791 2004 UGINET NICOLAS SA SC ARECHES 1:08.89 1:08.89 103.60
14 58 14/U16 FFS2661230 2005 WOODBRIDGE CHARLIE SA COURCHEVEL 1:09.16 1:09.16 108.41
15 29 15/U16 FFS2656451 2004 PARK OSCAR SA COURCHEVEL 1:09.19 1:09.19 108.95
16 23 16/U16 FFS2666743 2005 BERTINO FLORIAN SA CS KARELLIS 1:09.26 1:09.26 110.19
17 67 17/U16 FFS2659960 2004 SALLES ARTHUR SA CS LA PLAGNE 1:09.29 1:09.29 110.73
17 83 17/U16 FFS2662267 2005 ARNAUD MATHIS SA CO VAL THO 1:09.29 1:09.29 110.73
19 99 19/U16 FFS2668117 2005 CASSOULET JULES SA SC MENUIRES 1:09.43 1:09.43 113.22
20 48 20/U16 FFS2660821 2005 NORMAND MALO SA COURCHEVEL 1:09.49 1:09.49 114.29
21 86 21/U16 FFS2661905 2005 VITALE FLAVIO SA CS TIGNES 1:09.50 1:09.50 114.47
22 53 22/U16 FFS2667093 2005 HEUDE ARTHUR SA CO VAL THO 1:09.62 1:09.62 116.61
22 66 22/U16 FFS2672368 2005 CHEVAUCHER GABY SA CS LA NORMA 1:09.62 1:09.62 116.61
24 89 24/U16 FFS2661392 2004 RENAUT ENZO SA CS MERIBEL 1:09.68 1:09.68 117.67
25 32 25/U16 FFS2664268 2004 DELECLUSE ROMAIN SA CS LA PLAGNE 1:09.87 1:09.87 121.06
26 98 26/U16 FFS2662059 2005 DAMEVIN PIERRE ANTOINE SA CS VAL CENIS 1:09.94 1:09.94 122.30
27 31 27/U16 FFS2661129 2004 VUKAJLOVIC WESLEY ANDINO SA SC LES ARCS 1:09.95 1:09.95 122.48
28 51 28/U16 FFS2662828 2004 CASCI NOE SA VAL D'ISERE 1:09.99 1:09.99 123.19
29 9 29/U16 FFS2659044 2004 GARDIEN ROBIN SA CHAMBERY SKI 1:10.05 1:10.05 124.26
29 75 29/U16 FFS2653450 2004 NOUAILLETAS SEVERIN SA SSC VALLOIRE 1:10.05 1:10.05 124.26
31 38 31/U16 FFS2663576 2005 CARRICK SMITH LUCA SA VILLAROGER 1:10.08 1:10.08 124.80
32 34 32/U16 FFS2656337 2004 CUVEX COMBAZ FELIX SA CS SAISIES 1:10.14 1:10.14 125.87
32 97 32/U16 FFS2669975 2004 LAMASA GIORGIO SA SSC VALLOIRE 1:10.14 1:10.14 125.87
34 76 34/U16 FFS2668536 2005 MONGELLAZ THEO SA CS KARELLIS 1:10.41 1:10.41 130.67
35 59 35/U16 FFS2657442 2004 CHEDAL ANGLAY AXEL SA COURCHEVEL 1:10.46 1:10.46 131.56
36 64 36/U16 FFS2661553 2005 CAMPANELLI ULYSSE SA SC ROCHETTE 1:10.53 1:10.53 132.81
37 28 37/U16 FFS2662933 2004 PROUST HUGO SA ST FRANCOIS 1:10.58 1:10.58 133.70
38 33 38/U16 FFS2662066 2005 RIBAUD CHAUDAN VICTOR SA STE FOY TSE 1:10.79 1:10.79 137.44
39 46 39/U16 FFS2658176 2004 VINCENDET LOUIS SA CS LA NORMA 1:10.93 1:10.93 139.94
40 55 40/U16 FFS2660199 2004 PAILLAS VICTOR SA CS MERIBEL 1:11.02 1:11.02 141.54
41 96 41/U16 FFS2662138 2005 VARCIN ENZO SA VAL D'ISERE 1:11.04 1:11.04 141.89
42 6 42/U16 FFS2661982 2005 QUARTIER JULES SA VAL D'ISERE 1:11.09 1:11.09 142.78
43 43 43/U16 FFS2660184 2004 ASSONITIS ALEXANDRE SA CS MTCHAVIN 1:11.13 1:11.13 143.50
44 73 44/U16 FFS2662142 2005 AURARD LEON SA CO VAL THO 1:11.17 1:11.17 144.21
45 52 45/U16 FFS2681640 2005 TALAYRACH THOMAS SA CS TIGNES 1:11.27 1:11.27 145.99
46 60 46/U16 FFS2670410 2005 JANOT ETHAN SA CS LA PLAGNE 1:11.30 1:11.30 146.52
47 21 47/U16 FFS2658828 2005 NORAZ MATHIS SA SC VALMEINIE 1:11.35 1:11.35 147.41
48 20 48/U16 FFS2656917 2004 BARON JULES SA CS VAL CENIS 1:11.39 1:11.39 148.13
49 27 49/U16 FFS2662289 2005 NICOL JOHANN SA CO VAL THO 1:11.40 1:11.40 148.31
50 3 50/U16 FFS2661245 2004 DAME QUENTIN SA CS VAL CENIS 1:11.55 1:11.55 150.98
51 41 51/U16 FFS2662151 2004 BOUCHAGE EMILIEN SA SC ARECHES 1:11.91 1:11.91 157.39
52 17 52/U16 FFS2660735 2005 DECUGIS LOUIS SA SC CHAMPAGNY 1:11.97 1:11.97 158.46
53 81 53/U16 FFS2662291 2005 DAUMET HUGO SA CO VAL THO 1:11.99 1:11.99 158.81
54 79 54/U16 FFS2663292 2005 SPENCE JAKE SA SC LA TANIA 1:12.07 1:12.07 160.24
55 57 55/U16 FFS2671529 2005 FORTAIN SLOAN SA CHAMBERY SKI 1:12.08 1:12.08 160.42
56 87 56/U16 FFS2663390 2004 CHAUVIN TIMOTHEE SA CS TOUSSUIRE 1:12.18 1:12.18 162.20
57 94 57/U16 FFS2662935 2005 SAMBUIS ARTHUR SA ST FRANCOIS 1:12.36 1:12.36 165.40
58 71 58/U16 FFS2657165 2004 USANNAZ TIMEO SA STE FOY TSE 1:12.37 1:12.37 165.58
59 18 59/U16 FFS2656993 2004 MOLLIET EMILE SA SC ARECHES 1:12.47 1:12.47 167.36
60 12 60/U16 FFS2662139 2005 VENTURELLI THEO SA VAL D'ISERE 1:12.81 1:12.81 173.42
61 24 61/U16 FFS2669330 2004 PINNEAU ISAAC SA CS MTCHAVIN 1:12.82 1:12.82 173.59
62 54 62/U16 FFS2662290 2005 BARNOIN LEO SA CO VAL THO 1:12.86 1:12.86 174.31
63 78 63/U16 FFS2664113 2004 JENNINGS TOBY SA CS TIGNES 1:13.22 1:13.22 180.72
64 26 64/U16 FFS2664205 2005 PICHOL THIEVEND NEL SA CS SAISIES 1:13.25 1:13.25 181.25
65 7 65/U16 FFS2655881 2004 HEBERT EDGAR SA CHAMBERY SKI 1:13.42 1:13.42 184.28
66 4 66/U16 FFS2662068 2005 MAZET ALEXANDRE SA STE FOY TSE 1:13.50 1:13.50 185.70
67 62 67/U16 FFS2655841 2004 BLANC NOLAN SA COURCHEVEL 1:13.63 1:13.63 188.02
68 11 68/U16 FFS2659070 2004 TURNES NOAH SA SC VALMEINIE 1:13.75 1:13.75 190.16
69 50 69/U16 FFS2672734 2005 DELGADO CLEMENT SA SC AILLONS 1:14.07 1:14.07 195.86
70 65 70/U16 FFS2697065 2005 BLYTH RUARIDH SA CS TIGNES 1:14.21 1:14.21 198.35
71 44 71/U16 FFS2668963 2005 ASTIER THIBAULT SA SC MONTALBER 1:14.35 1:14.35 200.84
71 72 71/U16 FFS2661143 2004 BOUCHENOT MARC SA SC LES ARCS 1:14.35 1:14.35 200.84
73 8 73/U16 FFS2658244 2004 DUC JACQUET GASPARD SA SC ARECHES 1:14.41 1:14.41 201.91
74 91 74/U16 FFS2676577 2004 DENIS THOMAS SA CS TIGNES 1:14.45 1:14.45 202.62
75 30 75/U16 FFS2662378 2005 CLAVEL TEO SA CS VALMOREL 1:14.58 1:14.58 204.94
76 84 76/U16 FFS2662072 2005 OTTOBON NILS SA STE FOY TSE 1:14.77 1:14.77 208.32
77 56 77/U16 FFS2657552 2004 VOUTIER THEO SA ST SORLIN 1:14.81 1:14.81 209.03
78 25 78/U16 FFS2667770 2005 JOUENNE MAXANDRE SA SC MENUIRES 1:14.86 1:14.86 209.92
79 40 79/U16 FFS2667553 2005 BRIDGES TIERNAN SA SC MENUIRES 1:15.23 1:15.23 216.51
80 93 80/U16 FFS2668913 2005 RENAUX MATHEO SA CS VALMOREL 1:15.31 1:15.31 217.94
81 36 81/U16 FFS2657837 2004 ROUSSEAU FERNAND SA CS LA NORMA 1:15.42 1:15.42 219.90
82 88 82/U16 FFS2665247 2005 FOUCAULT ARTHUR SA SC PRALOGNAN 1:16.19 1:16.19 233.61
83 92 83/U16 FFS2659060 2005 NORAZ BAS AXEL SA SC VALMEINIE 1:16.81 1:16.81 244.65
84 47 84/U16 FFS2657915 2004 FAIVRE ELIOT SA SC AILLONS 1:16.98 1:16.98 247.68
85 37 85/U16 FFS2657902 2004 LOMBARD JUSTIN SA ALBERTVILLE 1:17.26 1:17.26 252.67
86 95 86/U16 FFS2668699 2005 RINGUEDE ROBIN SA SC MENUIRES 1:17.45 1:17.45 256.05
Abandons
1 FFS2661464 2005 RIVET LILIAN SA ALBERTVILLE
15 FFS2686095 2004 PINCAS LOUIS SA CS MTCHAVIN
42 FFS2657055 2004 BOIS BONNEVIE ANTOINE SA VAL D'ISERE
49 FFS2697363 2005 LEBEDEFF YVANN SA SC BONNEVAL
Non partants
19 FFS2669674 2005 ESCALA IBAN SA CS LA PLAGNE
22 FFS2687837 2004 ELLIS LUCAS SA CS TIGNES
35 FFS2663451 2005 EL AMIRI REMI SA CS SAISIES
39 FFS2662117 2005 GAILLARD LEO SA SC ARECHES
45 FFS2666493 2005 GORRAND LEOPOLD SA CS MERIBEL
61 FFS2656360 2005 NORAZ ELOUAN SA SSC VALLOIRE
69 FFS2691207 2004 MCKENZIE ALASDAIR SA CS TIGNES
80 FFS2656119 2004 ZANGERL LORENZO SA SC CHAMPAGNY
85 FFS2689950 2004 FOURMENTIN FELIX SA CS SAISIES
90 FFS2662498 2005 ACKERLEY SEBASTIAN SA CS TIGNES